createdAt,value
2022-10-19T00:02:06.489Z,10.70
2022-10-19T00:04:33.065Z,10.67
2022-10-19T00:07:00.885Z,10.68
2022-10-19T00:09:27.298Z,10.74
2022-10-19T00:11:54.243Z,10.82
2022-10-19T00:14:22.617Z,10.88
2022-10-19T00:16:50.862Z,10.96
2022-10-19T00:19:19.921Z,11.02
2022-10-19T00:21:46.908Z,11.02
2022-10-19T00:24:13.624Z,11.03
2022-10-19T00:26:40.041Z,11.06
2022-10-19T00:29:06.761Z,11.13
2022-10-19T00:31:33.856Z,11.20
2022-10-19T00:34:00.373Z,11.20
2022-10-19T00:36:32.433Z,11.19
2022-10-19T00:38:59.185Z,11.22
2022-10-19T00:41:33.543Z,11.28
2022-10-19T00:44:08.087Z,11.32
2022-10-19T00:46:36.829Z,11.35
2022-10-19T00:49:09.846Z,11.35
2022-10-19T00:51:39.231Z,11.36
2022-10-19T00:54:09.259Z,11.37
2022-10-19T00:56:38.001Z,11.39
2022-10-19T00:59:04.972Z,11.42
2022-10-19T01:01:32.302Z,11.43
2022-10-19T01:03:59.082Z,11.43
2022-10-19T01:06:26.416Z,11.39
2022-10-19T01:08:54.069Z,11.37
2022-10-19T01:11:26.429Z,11.34
2022-10-19T01:14:09.753Z,11.31
2022-10-19T01:16:40.855Z,11.30
2022-10-19T01:19:08.069Z,11.26
2022-10-19T01:21:38.426Z,11.18
2022-10-19T01:24:17.885Z,11.12
2022-10-19T01:26:59.986Z,11.08
2022-10-19T01:29:45.596Z,11.06
2022-10-19T01:32:16.660Z,11.02
2022-10-19T01:34:48.922Z,10.97
2022-10-19T01:37:27.778Z,10.91
2022-10-19T01:40:15.328Z,10.88
2022-10-19T01:42:51.579Z,10.84
2022-10-19T01:45:47.125Z,10.79
2022-10-19T01:48:23.181Z,10.75
2022-10-19T01:50:52.258Z,10.69
2022-10-19T01:53:19.719Z,10.64
2022-10-19T01:55:49.220Z,10.59
2022-10-19T01:58:17.534Z,10.56
2022-10-19T02:00:45.772Z,10.53
2022-10-19T02:03:12.988Z,10.50
2022-10-19T02:05:40.490Z,10.43
2022-10-19T02:08:10.925Z,10.36
2022-10-19T02:10:44.377Z,10.35
2022-10-19T02:13:24.995Z,10.28
2022-10-19T02:15:53.365Z,10.24
2022-10-19T02:18:22.505Z,10.21
2022-10-19T02:20:48.961Z,10.17
2022-10-19T02:23:17.229Z,10.15
2022-10-19T02:25:43.594Z,10.10
2022-10-19T02:28:09.924Z,10.05
2022-10-19T02:30:36.244Z,10.02
2022-10-19T02:33:02.684Z,9.97
2022-10-19T02:35:29.170Z,9.94
2022-10-19T02:37:59.589Z,9.92
2022-10-19T02:40:26.767Z,9.86
2022-10-19T02:42:56.943Z,9.82
2022-10-19T02:45:29.252Z,9.78
2022-10-19T02:47:58.254Z,9.75
2022-10-19T02:50:25.866Z,9.72
2022-10-19T02:52:52.173Z,9.69
2022-10-19T02:55:18.547Z,9.65
2022-10-19T02:57:45.261Z,9.65
2022-10-19T03:00:14.162Z,9.63
2022-10-19T03:02:40.505Z,9.61
2022-10-19T03:05:07.025Z,9.62
2022-10-19T03:07:33.605Z,9.60
2022-10-19T03:10:00.163Z,9.54
2022-10-19T03:12:26.520Z,9.51
2022-10-19T03:14:52.871Z,9.47
2022-10-19T03:17:20.772Z,9.45
2022-10-19T03:19:47.126Z,9.44
2022-10-19T03:22:17.368Z,9.40
2022-10-19T03:24:43.700Z,9.38
2022-10-19T03:27:10.239Z,9.36
2022-10-19T03:29:36.548Z,9.36
2022-10-19T03:32:03.011Z,9.36
2022-10-19T03:34:29.408Z,9.35
2022-10-19T03:36:56.699Z,9.37
2022-10-19T03:39:23.275Z,9.37
2022-10-19T03:41:50.291Z,9.38
2022-10-19T03:44:16.941Z,9.39
2022-10-19T03:46:44.770Z,9.40
2022-10-19T03:49:12.797Z,9.41
2022-10-19T03:51:39.143Z,9.42
2022-10-19T03:54:06.692Z,9.45
2022-10-19T03:56:34.467Z,9.47
2022-10-19T03:59:01.693Z,9.48
2022-10-19T04:01:32.893Z,9.52
2022-10-19T04:04:04.396Z,9.55
2022-10-19T04:06:32.364Z,9.60
2022-10-19T04:08:59.379Z,9.64
2022-10-19T04:11:27.402Z,9.67
2022-10-19T04:13:54.461Z,9.69
2022-10-19T04:16:21.899Z,9.71
2022-10-19T04:18:48.406Z,9.74
2022-10-19T04:21:25.277Z,9.77
2022-10-19T04:23:52.500Z,9.77
2022-10-19T04:26:20.767Z,9.78
2022-10-19T04:28:47.261Z,9.79
2022-10-19T04:31:13.637Z,9.80
2022-10-19T04:33:40.410Z,9.78
2022-10-19T04:36:08.892Z,9.78
2022-10-19T04:38:35.231Z,9.77
2022-10-19T04:41:05.953Z,9.74
2022-10-19T04:43:32.939Z,9.71
2022-10-19T04:46:06.161Z,9.67
2022-10-19T04:48:33.767Z,9.65
2022-10-19T04:51:00.326Z,9.63
2022-10-19T04:53:27.650Z,9.62
2022-10-19T04:55:56.346Z,9.60
2022-10-19T04:58:22.698Z,9.59
2022-10-19T05:00:49.132Z,9.57
2022-10-19T05:03:15.455Z,9.54
2022-10-19T05:05:41.769Z,9.52
2022-10-19T05:08:09.169Z,9.52
2022-10-19T05:10:37.398Z,9.49
2022-10-19T05:13:04.644Z,9.47
2022-10-19T05:15:31.121Z,9.44
2022-10-19T05:17:57.790Z,9.42
2022-10-19T05:20:24.292Z,9.38
2022-10-19T05:22:51.074Z,9.35
2022-10-19T05:25:17.529Z,9.31
2022-10-19T05:27:43.932Z,9.31
2022-10-19T05:30:10.417Z,9.29
2022-10-19T05:32:36.916Z,9.27
2022-10-19T05:35:03.572Z,9.26
2022-10-19T05:37:29.848Z,9.24
2022-10-19T05:39:56.269Z,9.23
2022-10-19T05:42:22.609Z,9.21
2022-10-19T05:44:48.930Z,9.21
2022-10-19T05:47:15.242Z,9.21
2022-10-19T05:49:41.548Z,9.29
2022-10-19T05:52:07.877Z,9.30
2022-10-19T05:54:35.909Z,9.30
2022-10-19T05:57:02.594Z,9.34
2022-10-19T05:59:28.904Z,9.35
2022-10-19T06:01:55.403Z,9.39
2022-10-19T06:04:21.848Z,9.44
2022-10-19T06:06:48.260Z,9.49
2022-10-19T06:09:14.720Z,9.53
2022-10-19T06:11:42.438Z,9.58
2022-10-19T06:14:13.334Z,9.61
2022-10-19T06:16:39.925Z,9.63
2022-10-19T06:19:06.470Z,9.67
2022-10-19T06:24:20.789Z,9.75
2022-10-19T06:26:47.189Z,9.78
2022-10-19T06:29:13.601Z,9.81
2022-10-19T06:31:40.101Z,9.84
2022-10-19T06:34:06.867Z,9.88
2022-10-19T06:36:33.305Z,9.92
2022-10-19T06:39:01.611Z,9.96
2022-10-19T06:41:28.861Z,9.98
2022-10-19T06:43:55.716Z,10.01
2022-10-19T06:46:23.605Z,10.06
2022-10-19T06:48:57.541Z,10.08
2022-10-19T06:51:25.516Z,10.12
2022-10-19T06:53:56.631Z,10.18
2022-10-19T06:56:26.907Z,10.22
2022-10-19T06:58:53.999Z,10.30
2022-10-19T07:01:20.790Z,10.39
2022-10-19T07:03:47.273Z,10.48
2022-10-19T07:06:13.634Z,10.56
2022-10-19T07:08:40.973Z,10.64
2022-10-19T07:11:08.942Z,10.72
2022-10-19T07:13:35.760Z,10.80
2022-10-19T07:16:14.587Z,10.88
2022-10-19T07:18:44.228Z,10.97
2022-10-19T07:21:12.271Z,11.04
2022-10-19T07:23:39.905Z,11.12
2022-10-19T07:26:07.182Z,11.19
2022-10-19T07:28:35.191Z,11.29
2022-10-19T07:31:08.354Z,11.36
2022-10-19T07:33:35.034Z,11.47
2022-10-19T07:36:02.082Z,11.51
2022-10-19T07:38:29.922Z,11.58
2022-10-19T07:41:00.057Z,11.67
2022-10-19T07:43:26.389Z,11.78
2022-10-19T07:45:58.543Z,11.85
2022-10-19T07:48:24.934Z,11.91
2022-10-19T07:50:51.237Z,11.98
2022-10-19T07:53:17.555Z,12.06
2022-10-19T07:55:43.875Z,12.18
2022-10-19T07:58:10.190Z,12.22
2022-10-19T08:00:36.597Z,12.37
2022-10-19T08:05:49.424Z,12.50
2022-10-19T08:08:15.731Z,12.50
2022-10-19T08:10:42.221Z,12.61
2022-10-19T08:13:08.497Z,12.72
2022-10-19T08:15:34.892Z,12.78
2022-10-19T08:18:01.239Z,12.90
2022-10-19T08:20:27.601Z,12.97
2022-10-19T08:22:57.942Z,13.09
2022-10-19T08:25:25.433Z,13.21
2022-10-19T08:27:52.491Z,13.23
2022-10-19T08:30:19.019Z,13.31
2022-10-19T08:32:45.379Z,13.45
2022-10-19T08:35:11.651Z,13.56
2022-10-19T08:37:45.018Z,13.65
2022-10-19T08:40:20.634Z,13.77
2022-10-19T08:42:57.501Z,13.77
2022-10-19T08:45:38.879Z,13.92
2022-10-19T08:48:05.240Z,13.90
2022-10-19T08:50:43.523Z,14.09
2022-10-19T08:53:15.512Z,14.21
2022-10-19T08:55:48.048Z,14.37
2022-10-19T08:58:20.625Z,14.52
2022-10-19T09:00:54.697Z,14.51
2022-10-19T09:03:43.878Z,14.59
2022-10-19T09:06:21.988Z,14.59
2022-10-19T09:08:50.489Z,14.65
2022-10-19T09:11:20.393Z,14.77
2022-10-19T09:14:04.333Z,14.96
2022-10-19T09:16:31.358Z,15.33
2022-10-19T09:18:57.687Z,15.43
2022-10-19T09:21:47.272Z,15.54
2022-10-19T09:24:34.215Z,15.68
2022-10-19T09:27:01.075Z,15.98
2022-10-19T09:29:36.991Z,16.24
2022-10-19T09:32:04.902Z,16.45
2022-10-19T09:34:34.605Z,16.48
2022-10-19T09:37:00.998Z,16.57
2022-10-19T09:39:29.575Z,16.44
2022-10-19T09:41:57.454Z,16.55
2022-10-19T09:44:24.065Z,16.33
2022-10-19T09:47:17.922Z,16.38
2022-10-19T09:49:48.342Z,16.65
2022-10-19T09:52:41.057Z,16.55
2022-10-19T09:55:27.720Z,16.75
2022-10-19T09:58:01.971Z,16.83
2022-10-19T10:00:36.260Z,16.92
2022-10-19T10:03:02.717Z,17.17
2022-10-19T10:05:33.825Z,17.22
2022-10-19T10:08:00.466Z,17.14
2022-10-19T10:10:46.394Z,17.30
2022-10-19T10:13:17.867Z,17.25
2022-10-19T10:15:47.015Z,17.26
2022-10-19T10:18:15.009Z,17.00
2022-10-19T10:23:30.961Z,16.89
2022-10-19T10:25:58.406Z,16.80
2022-10-19T10:28:26.335Z,16.92
2022-10-19T10:31:10.801Z,17.07
2022-10-19T10:33:44.905Z,17.21
2022-10-19T10:36:12.436Z,17.34
2022-10-19T10:38:45.066Z,17.23
2022-10-19T10:41:14.218Z,17.18
2022-10-19T10:46:24.658Z,17.25
2022-10-19T10:48:58.529Z,17.29
2022-10-19T10:51:36.768Z,17.43
2022-10-19T10:54:22.966Z,17.65
2022-10-19T10:57:09.324Z,17.78
2022-10-19T10:59:43.050Z,18.10
2022-10-19T11:04:56.168Z,18.99
2022-10-19T11:07:26.804Z,19.27
2022-10-19T11:09:54.528Z,19.60
2022-10-19T11:12:31.551Z,19.06
2022-10-19T11:15:13.607Z,19.08
2022-10-19T11:17:42.892Z,18.86
2022-10-19T11:20:14.770Z,19.09
2022-10-19T11:22:47.134Z,19.18
2022-10-19T11:25:26.445Z,19.18
2022-10-19T11:27:52.758Z,18.99
2022-10-19T11:30:24.128Z,19.22
2022-10-19T11:32:59.810Z,19.58
2022-10-19T11:35:32.185Z,19.94
2022-10-19T11:38:20.387Z,20.44
2022-10-19T11:41:12.890Z,20.74
2022-10-19T11:43:38.249Z,20.47
2022-10-19T11:46:19.550Z,19.94
2022-10-19T11:48:54.960Z,19.65
2022-10-19T11:51:22.185Z,19.70
2022-10-19T11:53:54.773Z,19.97
2022-10-19T11:56:39.320Z,20.20
2022-10-19T11:59:23.728Z,20.11
2022-10-19T12:01:54.269Z,20.15
2022-10-19T12:04:28.597Z,19.91
2022-10-19T12:06:59.125Z,20.13
2022-10-19T12:09:34.409Z,20.15
2022-10-19T12:12:19.617Z,20.25
2022-10-19T12:14:48.896Z,20.42
2022-10-19T12:17:23.483Z,20.64
2022-10-19T12:19:54.072Z,20.57
2022-10-19T12:22:25.100Z,20.46
2022-10-19T12:24:54.632Z,20.33
2022-10-19T12:27:32.598Z,20.24
2022-10-19T12:30:03.045Z,20.42
2022-10-19T12:32:32.162Z,20.39
2022-10-19T12:35:04.658Z,20.40
2022-10-19T12:37:44.610Z,20.08
2022-10-19T12:40:43.398Z,20.05
2022-10-19T12:43:20.086Z,20.10
2022-10-19T12:45:52.742Z,20.16
2022-10-19T12:48:20.277Z,20.16
2022-10-19T12:50:49.702Z,19.99
2022-10-19T12:53:23.460Z,20.12
2022-10-19T12:56:05.145Z,20.21
2022-10-19T12:58:34.638Z,20.25
2022-10-19T13:01:02.414Z,20.13
2022-10-19T13:03:51.060Z,20.01
2022-10-19T13:06:23.412Z,20.16
2022-10-19T13:08:52.857Z,20.27
2022-10-19T13:11:20.395Z,20.21
2022-10-19T13:14:07.035Z,20.13
2022-10-19T13:16:33.361Z,19.88
2022-10-19T13:18:59.787Z,19.73
2022-10-19T13:21:44.626Z,19.67
2022-10-19T13:24:20.165Z,19.86
2022-10-19T13:26:46.659Z,19.63
2022-10-19T13:29:26.133Z,19.74
2022-10-19T13:31:52.521Z,19.78
2022-10-19T13:34:18.864Z,19.67
2022-10-19T13:37:01.901Z,19.74
2022-10-19T13:39:28.972Z,19.78
2022-10-19T13:41:56.983Z,19.68
2022-10-19T13:44:25.378Z,19.41
2022-10-19T13:46:51.650Z,19.41
2022-10-19T13:49:36.862Z,19.48
2022-10-19T13:52:03.119Z,19.45
2022-10-19T13:54:29.435Z,19.31
2022-10-19T13:57:05.149Z,19.44
2022-10-19T13:59:37.615Z,19.51
2022-10-19T14:02:23.639Z,19.38
2022-10-19T14:05:08.839Z,19.50
2022-10-19T14:07:50.054Z,19.37
2022-10-19T14:10:17.872Z,19.26
2022-10-19T14:12:45.207Z,19.13
2022-10-19T14:15:14.011Z,19.02
2022-10-19T14:17:42.316Z,18.71
2022-10-19T14:20:24.659Z,18.70
2022-10-19T14:22:50.946Z,18.83
2022-10-19T14:25:17.341Z,18.75
2022-10-19T14:27:44.931Z,18.56
2022-10-19T14:30:22.530Z,18.41
2022-10-19T14:32:49.018Z,18.34
2022-10-19T14:35:28.239Z,18.23
2022-10-19T14:37:54.931Z,18.17
2022-10-19T14:40:26.354Z,18.32
2022-10-19T14:42:54.437Z,18.34
2022-10-19T14:45:25.421Z,18.32
2022-10-19T14:47:52.018Z,18.40
2022-10-19T14:50:19.547Z,18.37
2022-10-19T14:52:46.255Z,18.47
2022-10-19T14:55:17.972Z,18.45
2022-10-19T14:57:46.464Z,18.65
2022-10-19T15:00:22.909Z,18.78
2022-10-19T15:02:52.384Z,18.48
2022-10-19T15:05:20.277Z,18.29
2022-10-19T15:07:46.749Z,18.01
2022-10-19T15:10:19.070Z,17.84
2022-10-19T15:12:45.564Z,17.54
2022-10-19T15:15:41.131Z,17.39
2022-10-19T15:18:30.271Z,17.34
2022-10-19T15:21:12.228Z,17.18
2022-10-19T15:23:46.945Z,16.98
2022-10-19T15:26:25.385Z,16.81
2022-10-19T15:28:53.524Z,16.71
2022-10-19T15:31:26.958Z,16.54
2022-10-19T15:33:54.526Z,16.39
2022-10-19T15:36:21.648Z,16.15
2022-10-19T15:39:17.914Z,15.98
2022-10-19T15:41:51.280Z,16.01
2022-10-19T15:44:31.569Z,15.99
2022-10-19T15:47:18.936Z,15.97
2022-10-19T15:49:45.695Z,15.88
2022-10-19T15:52:14.743Z,15.81
2022-10-19T15:54:41.072Z,15.72
2022-10-19T15:57:22.283Z,15.61
2022-10-19T15:59:48.852Z,15.53
2022-10-19T16:02:15.200Z,15.58
2022-10-19T16:04:41.488Z,15.42
2022-10-19T16:07:12.485Z,15.43
2022-10-19T16:09:38.809Z,15.46
2022-10-19T16:12:05.197Z,15.37
2022-10-19T16:14:34.361Z,15.29
2022-10-19T16:17:02.905Z,15.16
2022-10-19T16:19:29.350Z,15.14
2022-10-19T16:21:55.770Z,15.06
2022-10-19T16:24:22.060Z,15.03
2022-10-19T16:26:48.390Z,14.92
2022-10-19T16:29:14.675Z,14.87
2022-10-19T16:31:41.006Z,14.88
2022-10-19T16:34:07.334Z,14.84
2022-10-19T16:36:33.654Z,14.71
2022-10-19T16:39:00.834Z,14.70
2022-10-19T16:41:27.151Z,14.61
2022-10-19T16:43:54.043Z,14.57
2022-10-19T16:46:21.532Z,14.53
2022-10-19T16:48:47.836Z,14.43
2022-10-19T16:51:33.043Z,14.40
2022-10-19T16:53:59.484Z,14.32
2022-10-19T16:56:26.690Z,14.17
2022-10-19T16:58:53.757Z,14.19
2022-10-19T17:01:22.544Z,14.05
2022-10-19T17:03:49.429Z,14.07
2022-10-19T17:06:16.950Z,14.02
2022-10-19T17:09:14.356Z,13.86
2022-10-19T17:11:31.892Z,13.78
2022-10-19T17:14:00.350Z,13.69
2022-10-19T17:16:27.482Z,13.76
2022-10-19T17:18:54.997Z,13.79
2022-10-19T17:21:25.921Z,13.76
2022-10-19T17:23:53.364Z,13.65
2022-10-19T17:26:24.395Z,13.65
2022-10-19T17:28:50.706Z,13.64
2022-10-19T17:31:17.047Z,13.53
2022-10-19T17:33:43.413Z,13.50
2022-10-19T17:36:11.323Z,13.47
2022-10-19T17:38:38.288Z,13.45
2022-10-19T17:41:14.050Z,13.31
2022-10-19T17:43:41.581Z,13.16
2022-10-19T17:46:09.388Z,13.29
2022-10-19T17:48:37.153Z,13.26
2022-10-19T17:51:05.253Z,13.26
2022-10-19T17:53:32.098Z,13.19
2022-10-19T17:55:59.357Z,13.19
2022-10-19T17:58:25.750Z,13.15
2022-10-19T18:00:55.561Z,13.12
2022-10-19T18:03:22.976Z,13.05
2022-10-19T18:05:59.944Z,13.06
2022-10-19T18:08:27.825Z,13.06
2022-10-19T18:11:04.735Z,13.04
2022-10-19T18:13:31.608Z,13.06
2022-10-19T18:16:05.104Z,12.97
2022-10-19T18:18:32.819Z,12.99
2022-10-19T18:20:59.560Z,13.00
2022-10-19T18:23:25.978Z,12.95
2022-10-19T18:25:54.347Z,12.90
2022-10-19T18:28:21.078Z,12.93
2022-10-19T18:30:47.456Z,12.88
2022-10-19T18:33:13.985Z,12.89
2022-10-19T18:35:40.709Z,12.80
2022-10-19T18:38:07.411Z,12.80
2022-10-19T18:40:34.634Z,12.77
2022-10-19T18:43:00.922Z,12.79
2022-10-19T18:45:27.314Z,12.75
2022-10-19T18:47:53.682Z,12.73
2022-10-19T18:50:22.740Z,12.66
2022-10-19T18:52:49.844Z,12.67
2022-10-19T18:55:16.176Z,12.71
2022-10-19T18:57:42.508Z,12.67
2022-10-19T19:00:09.104Z,12.59
2022-10-19T19:02:46.495Z,12.57
2022-10-19T19:05:13.651Z,12.54
2022-10-19T19:07:39.928Z,12.55
2022-10-19T19:10:06.522Z,12.54
2022-10-19T19:12:33.378Z,12.56
2022-10-19T19:15:00.033Z,12.43
2022-10-19T19:17:26.348Z,12.37
2022-10-19T19:19:52.661Z,12.38
2022-10-19T19:22:18.988Z,12.35
2022-10-19T19:24:45.402Z,12.25
2022-10-19T19:27:11.786Z,12.18
2022-10-19T19:29:38.122Z,12.16
2022-10-19T19:32:04.892Z,12.13
2022-10-19T19:34:31.273Z,12.06
2022-10-19T19:36:57.627Z,12.02
2022-10-19T19:39:23.933Z,12.02
2022-10-19T19:41:50.436Z,11.96
2022-10-19T19:44:17.408Z,11.87
2022-10-19T19:46:43.845Z,11.78
2022-10-19T19:49:10.643Z,11.78
2022-10-19T19:51:37.152Z,11.71
2022-10-19T19:54:04.097Z,11.67
2022-10-19T19:56:30.440Z,11.67
2022-10-19T19:58:57.563Z,11.60
2022-10-19T20:01:24.398Z,11.61
2022-10-19T20:03:51.034Z,11.59
2022-10-19T20:06:20.745Z,11.59
2022-10-19T20:08:50.042Z,11.59
2022-10-19T20:11:17.565Z,11.61
2022-10-19T20:13:45.349Z,11.52
2022-10-19T20:16:13.888Z,11.48
2022-10-19T20:18:41.124Z,11.44
2022-10-19T20:21:07.624Z,11.48
2022-10-19T20:23:34.013Z,11.48
2022-10-19T20:26:00.389Z,11.46
2022-10-19T20:28:27.437Z,11.44
2022-10-19T20:31:04.091Z,11.45
2022-10-19T20:33:31.537Z,11.38
2022-10-19T20:36:02.614Z,11.38
2022-10-19T20:38:28.910Z,11.32
2022-10-19T20:40:55.309Z,11.33
2022-10-19T20:43:21.720Z,11.34
2022-10-19T20:45:48.072Z,11.28
2022-10-19T20:48:14.468Z,11.25
2022-10-19T20:50:40.864Z,11.20
2022-10-19T20:53:09.827Z,11.19
2022-10-19T20:55:36.209Z,11.08
2022-10-19T20:58:02.604Z,11.10
2022-10-19T21:00:29.279Z,11.03
2022-10-19T21:02:56.055Z,11.02
2022-10-19T21:05:22.488Z,11.00
2022-10-19T21:07:48.785Z,10.97
2022-10-19T21:10:17.990Z,10.93
2022-10-19T21:12:45.114Z,10.97
2022-10-19T21:15:11.477Z,10.93
2022-10-19T21:17:37.890Z,10.93
2022-10-19T21:20:04.381Z,10.87
2022-10-19T21:22:33.325Z,10.88
2022-10-19T21:25:02.305Z,10.83
2022-10-19T21:27:28.672Z,10.81
2022-10-19T21:29:54.978Z,10.78
2022-10-19T21:32:21.757Z,10.74
2022-10-19T21:34:48.214Z,10.71
2022-10-19T21:37:14.589Z,10.69
2022-10-19T21:39:40.875Z,10.61
2022-10-19T21:42:07.192Z,10.63
2022-10-19T21:44:33.497Z,10.62
2022-10-19T21:46:59.797Z,10.55
2022-10-19T21:49:26.145Z,10.58
2022-10-19T21:51:55.948Z,10.49
2022-10-19T21:54:24.810Z,10.52
2022-10-19T21:56:51.573Z,10.53
2022-10-19T21:59:17.901Z,10.51
2022-10-19T22:01:44.621Z,10.54
2022-10-19T22:04:12.350Z,10.50
2022-10-19T22:06:39.040Z,10.41
2022-10-19T22:09:06.500Z,10.44
2022-10-19T22:11:33.507Z,10.44
2022-10-19T22:14:00.742Z,10.46
2022-10-19T22:16:27.564Z,10.48
2022-10-19T22:18:54.067Z,10.51
2022-10-19T22:21:21.746Z,10.51
2022-10-19T22:23:55.359Z,10.51
2022-10-19T22:26:24.839Z,10.47
2022-10-19T22:28:58.201Z,10.43
2022-10-19T22:31:26.742Z,10.40
2022-10-19T22:33:54.057Z,10.38
2022-10-19T22:36:21.008Z,10.34
2022-10-19T22:38:47.788Z,10.29
2022-10-19T22:41:51.826Z,10.30
2022-10-19T22:44:18.189Z,10.27
2022-10-19T22:46:44.567Z,10.25
2022-10-19T22:49:10.998Z,10.27
2022-10-19T22:51:38.120Z,10.23
2022-10-19T22:54:06.377Z,10.23
2022-10-19T22:56:32.812Z,10.26
2022-10-19T22:59:01.351Z,10.25
2022-10-19T23:01:28.901Z,10.24
2022-10-19T23:03:55.896Z,10.22
2022-10-19T23:06:23.254Z,10.19
2022-10-19T23:08:50.822Z,10.11
2022-10-19T23:11:18.585Z,10.11
2022-10-19T23:13:44.991Z,10.10
2022-10-19T23:16:12.575Z,10.07
2022-10-19T23:18:40.377Z,10.08
2022-10-19T23:21:11.767Z,10.08
2022-10-19T23:23:39.243Z,10.03
2022-10-19T23:26:08.077Z,10.00
2022-10-19T23:28:35.375Z,10.00
2022-10-19T23:31:07.836Z,9.95
2022-10-19T23:33:34.882Z,9.88
2022-10-19T23:36:03.811Z,9.89
2022-10-19T23:38:31.037Z,9.84
2022-10-19T23:40:58.480Z,9.81
2022-10-19T23:43:25.710Z,9.79
2022-10-19T23:45:52.134Z,9.71
2022-10-19T23:48:18.877Z,9.73
2022-10-19T23:50:45.975Z,9.74
2022-10-19T23:53:13.721Z,9.67
2022-10-19T23:55:41.201Z,9.68
2022-10-19T23:58:08.050Z,9.63
